Daganzo de Arriba, Spain
Current Conditions -  °F | °C
As of 4:00 PM on Thursday 30 Oct 2014 (Local Time) from LETO Reporting Station
Clear Clear  
Wind Chill: 81°   Ceiling: Unl
Heat Index: 81°   Visibility: 6mi
Dew Point: 45°   Wind: 0mph
Humidity: 28%   Direction: NA
Pressure: 30.18"   Gusts: NA
Location:  40.54°N, 3.45°W
Report Text: LETO 301500Z 00000KT CAVOK 27/07 Q1022 NOSIG
Loading
Personal Weather Stations






























Interactive Weather Map
Tropical Storm Tracking
New forecast layout! Learn more

10-Day Weather Forecast

Advertisements
Track Severe Weather on mobile